createdAt,value
2018-10-18T12:36:27.661Z,23.60
2018-10-18T12:39:05.123Z,23.47
2018-10-18T12:41:40.639Z,29.80
2018-10-18T12:44:16.888Z,21.03
2018-10-18T12:46:53.959Z,22.20
2018-10-18T12:49:32.092Z,22.97
2018-10-18T12:52:07.694Z,26.73
2018-10-18T12:54:45.157Z,27.53
2018-10-18T12:57:20.420Z,22.00
2018-10-18T12:59:56.533Z,24.70
2018-10-18T13:02:31.791Z,21.17
2018-10-18T13:05:08.594Z,27.87
2018-10-18T13:07:45.127Z,23.47
2018-10-18T13:10:19.686Z,24.77
2018-10-18T13:12:56.124Z,23.17
2018-10-18T13:15:36.716Z,30.63
2018-10-18T13:18:14.724Z,21.93
2018-10-18T13:20:50.674Z,22.93
2018-10-18T13:23:27.143Z,24.43
2018-10-18T13:26:07.711Z,24.50
2018-10-18T13:28:48.141Z,33.50
2018-10-18T13:31:22.689Z,31.10
2018-10-18T13:33:58.778Z,27.13
2018-10-18T13:36:34.803Z,26.67
2018-10-18T13:39:13.841Z,26.60
2018-10-18T13:41:51.419Z,26.13
2018-10-18T13:44:28.710Z,26.27
2018-10-18T13:47:04.973Z,31.03
2018-10-18T13:49:40.617Z,30.40
2018-10-18T13:52:17.701Z,28.20
2018-10-18T13:54:53.759Z,31.13
2018-10-18T13:57:32.884Z,25.67
2018-10-18T14:00:33.728Z,34.30
2018-10-18T14:03:11.628Z,25.97
2018-10-18T14:05:47.762Z,29.30
2018-10-18T14:08:23.625Z,28.90
2018-10-18T14:11:01.713Z,25.83
2018-10-18T14:13:36.680Z,35.17
2018-10-18T14:16:14.786Z,26.47
2018-10-18T14:18:48.586Z,26.80
2018-10-18T14:21:46.767Z,28.40
2018-10-18T14:24:22.612Z,30.13
2018-10-18T14:27:01.541Z,27.60
2018-10-18T14:29:39.028Z,28.73
2018-10-18T14:32:14.753Z,26.23
2018-10-18T14:34:57.708Z,27.07
2018-10-18T14:37:32.734Z,25.77
2018-10-18T14:40:07.770Z,27.00
2018-10-18T14:42:44.648Z,25.80
2018-10-18T14:45:21.748Z,32.40
2018-10-18T14:48:01.677Z,26.07
2018-10-18T14:50:36.830Z,28.90
2018-10-18T14:53:11.849Z,30.33
2018-10-18T14:55:54.814Z,32.60
2018-10-18T14:58:32.659Z,33.17
2018-10-18T15:01:07.702Z,25.63
2018-10-18T15:03:43.958Z,38.10
2018-10-18T15:06:37.024Z,36.07
2018-10-18T15:09:14.094Z,29.07
2018-10-18T15:11:49.947Z,31.17
2018-10-18T15:14:29.690Z,32.43
2018-10-18T15:17:06.646Z,31.20
2018-10-18T15:19:42.624Z,40.30
2018-10-18T15:22:19.191Z,29.47
2018-10-18T15:24:54.738Z,32.80
2018-10-18T15:27:32.088Z,30.90
2018-10-18T15:30:08.494Z,36.73
2018-10-18T15:32:44.182Z,28.80
2018-10-18T15:35:19.790Z,28.40
2018-10-18T15:37:54.908Z,31.37
2018-10-18T15:40:30.228Z,30.70
2018-10-18T15:43:06.731Z,29.67
2018-10-18T15:45:43.815Z,31.47
2018-10-18T15:48:20.689Z,29.93
2018-10-18T15:50:56.384Z,34.00
2018-10-18T15:53:32.809Z,34.70
2018-10-18T15:56:07.841Z,30.73
2018-10-18T16:01:35.933Z,35.43
2018-10-18T16:04:13.014Z,30.40
2018-10-18T16:06:48.866Z,29.37
2018-10-18T16:09:25.947Z,34.90
2018-10-18T16:12:08.768Z,29.67
2018-10-18T16:14:45.021Z,33.37
2018-10-18T16:17:21.091Z,36.83
2018-10-18T16:19:58.178Z,33.40
2018-10-18T16:22:32.786Z,36.83
2018-10-18T16:25:09.871Z,30.17
2018-10-18T16:27:45.923Z,39.40
2018-10-18T16:30:22.804Z,31.90
2018-10-18T16:32:57.839Z,33.43
2018-10-18T16:35:34.915Z,32.93
2018-10-18T16:38:13.865Z,31.53
2018-10-18T16:40:51.178Z,32.83
2018-10-18T16:43:32.330Z,36.07
2018-10-18T16:46:07.962Z,36.97
2018-10-18T16:48:44.627Z,29.67
2018-10-18T16:51:24.216Z,33.07
2018-10-18T16:54:02.997Z,36.77
2018-10-18T16:56:38.944Z,43.53
2018-10-18T16:59:15.201Z,31.43
2018-10-18T17:01:49.825Z,38.80
2018-10-18T17:04:25.044Z,30.03
2018-10-18T17:07:02.969Z,37.07
2018-10-18T17:09:40.866Z,32.20
2018-10-18T17:12:17.039Z,32.37
2018-10-18T17:14:51.960Z,39.60
2018-10-18T17:17:30.467Z,37.53
2018-10-18T17:20:13.240Z,38.87
2018-10-18T17:22:55.900Z,36.33
2018-10-18T17:25:30.934Z,41.67
2018-10-18T17:28:06.993Z,34.03
2018-10-18T17:30:51.241Z,36.33
2018-10-18T17:42:07.439Z,31.57
2018-10-18T17:44:42.931Z,32.33
2018-10-18T17:53:07.007Z,35.03
2018-10-18T18:04:20.943Z,35.27
2018-10-18T18:09:51.917Z,32.97
2018-10-18T18:12:29.806Z,37.50
2018-10-18T18:15:05.860Z,32.70
2018-10-18T18:17:46.831Z,44.47
2018-10-18T18:29:05.746Z,35.37
2018-10-18T18:31:54.909Z,37.03
2018-10-18T18:43:12.413Z,38.47
2018-10-18T18:45:50.901Z,37.10
2018-10-18T19:11:32.839Z,33.80
2018-10-18T19:31:34.401Z,37.50
2018-10-18T19:34:17.424Z,32.30
2018-10-18T19:54:20.008Z,33.13
2018-10-18T19:57:05.077Z,31.00
2018-10-18T19:59:43.999Z,35.87
2018-10-18T20:02:23.129Z,35.07
2018-10-18T20:05:01.439Z,31.40
2018-10-18T20:07:40.990Z,31.87
2018-10-18T20:27:33.118Z,35.93
2018-10-18T20:30:10.057Z,40.63
2018-10-18T20:53:00.158Z,39.17
2018-10-18T20:55:36.491Z,32.60
2018-10-18T20:58:12.838Z,43.60
2018-10-18T21:00:49.713Z,43.47
2018-10-18T21:03:27.819Z,36.43
2018-10-18T21:23:23.029Z,36.97
2018-10-18T21:25:59.524Z,38.60
2018-10-18T21:45:52.666Z,38.83
2018-10-18T21:48:28.924Z,41.03
2018-10-18T21:51:05.007Z,39.10
2018-10-18T21:53:41.855Z,33.43
2018-10-18T22:13:36.865Z,43.93
2018-10-18T22:16:12.925Z,41.43
2018-10-18T22:36:07.110Z,42.60
2018-10-18T22:38:41.123Z,41.00
2018-10-18T22:41:16.572Z,45.07
2018-10-18T22:43:54.466Z,39.60
2018-10-18T23:03:47.021Z,46.13
2018-10-18T23:06:22.049Z,43.53
2018-10-18T23:26:17.876Z,46.00
2018-10-18T23:28:53.116Z,46.87
2018-10-18T23:48:48.118Z,48.07
2018-10-18T23:51:23.154Z,48.00
